createdAt,value
2018-04-18T00:00:49.279Z,13.03
2018-04-18T00:03:16.752Z,13.10
2018-04-18T00:05:44.209Z,12.07
2018-04-18T00:08:11.774Z,12.67
2018-04-18T00:10:39.238Z,13.73
2018-04-18T00:13:06.700Z,15.20
2018-04-18T00:15:34.171Z,16.47
2018-04-18T00:18:01.636Z,15.93
2018-04-18T00:20:29.874Z,13.13
2018-04-18T00:22:57.357Z,15.97
2018-04-18T00:25:24.812Z,14.30
2018-04-18T00:27:52.277Z,19.50
2018-04-18T00:30:19.729Z,13.00
2018-04-18T00:32:47.205Z,15.67
2018-04-18T00:35:14.682Z,15.47
2018-04-18T00:37:42.169Z,15.43
2018-04-18T00:40:09.617Z,16.43
2018-04-18T00:42:37.091Z,15.93
2018-04-18T00:45:04.550Z,14.30
2018-04-18T00:47:32.054Z,15.70
2018-04-18T00:49:59.501Z,15.27
2018-04-18T00:52:26.969Z,18.87
2018-04-18T00:54:54.424Z,18.30
2018-04-18T00:57:21.881Z,17.67
2018-04-18T00:59:49.353Z,15.40
2018-04-18T01:02:16.810Z,16.30
2018-04-18T01:04:44.334Z,16.73
2018-04-18T01:07:11.782Z,17.23
2018-04-18T01:09:39.250Z,18.00
2018-04-18T01:12:06.718Z,18.57
2018-04-18T01:14:34.192Z,21.33
2018-04-18T01:17:01.823Z,20.57
2018-04-18T01:19:29.433Z,19.73
2018-04-18T01:21:56.885Z,16.47
2018-04-18T01:24:24.348Z,20.60
2018-04-18T01:26:51.810Z,18.87
2018-04-18T01:29:19.301Z,18.37
2018-04-18T01:31:46.760Z,17.70
2018-04-18T01:34:14.268Z,19.87
2018-04-18T01:36:41.731Z,21.97
2018-04-18T01:39:09.193Z,23.97
2018-04-18T01:41:36.658Z,16.57
2018-04-18T01:44:04.120Z,16.57
2018-04-18T01:46:31.611Z,16.37
2018-04-18T01:49:11.058Z,20.27
2018-04-18T01:51:38.512Z,19.60
2018-04-18T01:54:06.102Z,23.80
2018-04-18T01:56:33.556Z,23.10
2018-04-18T01:59:01.030Z,21.73
2018-04-18T02:01:28.525Z,22.40
2018-04-18T02:03:55.994Z,22.10
2018-04-18T02:06:23.442Z,20.33
2018-04-18T02:08:50.909Z,20.33
2018-04-18T02:11:18.457Z,19.13
2018-04-18T02:13:47.792Z,18.77
2018-04-18T02:16:15.454Z,19.70
2018-04-18T02:18:42.916Z,19.70
2018-04-18T02:21:10.373Z,18.73
2018-04-18T02:23:37.869Z,18.73
2018-04-18T02:26:05.325Z,19.43
2018-04-18T02:28:32.792Z,21.43
2018-04-18T02:31:00.257Z,20.93
2018-04-18T02:33:27.734Z,20.33
2018-04-18T02:35:55.176Z,19.37
2018-04-18T02:38:22.654Z,18.03
2018-04-18T02:40:50.114Z,16.60
2018-04-18T02:43:17.573Z,20.90
2018-04-18T02:45:45.043Z,20.57
2018-04-18T02:48:13.258Z,19.43
2018-04-18T02:50:40.731Z,18.13
2018-04-18T02:53:08.197Z,18.87
2018-04-18T02:55:35.730Z,19.47
2018-04-18T02:58:03.962Z,21.13
2018-04-18T03:00:31.413Z,18.93
2018-04-18T03:02:58.890Z,20.83
2018-04-18T03:05:26.337Z,20.63
2018-04-18T03:07:53.793Z,25.50
2018-04-18T03:10:22.030Z,24.83
2018-04-18T03:12:49.475Z,21.83
2018-04-18T03:15:17.000Z,25.27
2018-04-18T03:17:45.226Z,20.37
2018-04-18T03:20:12.704Z,21.43
2018-04-18T03:22:40.156Z,21.33
2018-04-18T03:25:07.622Z,20.00
2018-04-18T03:27:35.076Z,24.33
2018-04-18T03:30:03.308Z,21.37
2018-04-18T03:32:30.770Z,22.33
2018-04-18T03:34:58.228Z,22.00
2018-04-18T03:37:25.687Z,25.33
2018-04-18T03:39:53.148Z,22.90
2018-04-18T03:42:20.605Z,23.37
2018-04-18T03:44:48.828Z,19.77
2018-04-18T03:47:16.285Z,20.23
2018-04-18T03:49:43.744Z,19.10
2018-04-18T03:52:11.205Z,22.03
2018-04-18T03:54:39.442Z,20.50
2018-04-18T03:57:06.902Z,19.97
2018-04-18T03:59:34.369Z,24.27
2018-04-18T04:02:01.927Z,21.33
2018-04-18T04:04:29.384Z,18.23
2018-04-18T04:06:56.846Z,23.53
2018-04-18T04:09:24.341Z,20.47
2018-04-18T04:11:51.789Z,22.10
2018-04-18T04:14:19.252Z,21.93
2018-04-18T04:16:58.782Z,23.30
2018-04-18T04:19:38.324Z,21.63
2018-04-18T04:22:17.585Z,20.80
2018-04-18T04:24:45.847Z,24.40
2018-04-18T04:27:13.290Z,20.90
2018-04-18T04:29:40.754Z,21.17
2018-04-18T04:32:08.222Z,22.07
2018-04-18T04:34:35.690Z,23.07
2018-04-18T04:37:03.162Z,22.00
2018-04-18T04:39:30.627Z,21.13
2018-04-18T04:41:58.087Z,21.43
2018-04-18T04:44:25.553Z,20.60
2018-04-18T04:46:53.013Z,19.50
2018-04-18T04:49:20.490Z,20.93
2018-04-18T04:51:47.948Z,17.37
2018-04-18T04:54:15.427Z,21.13
2018-04-18T04:56:42.883Z,19.90
2018-04-18T04:59:11.109Z,20.53
2018-04-18T05:01:38.567Z,20.60
2018-04-18T05:04:06.029Z,19.33
2018-04-18T05:06:33.497Z,23.23
2018-04-18T05:09:00.965Z,19.40
2018-04-18T05:11:28.465Z,18.73
2018-04-18T05:13:55.913Z,19.80
2018-04-18T05:16:23.368Z,18.60
2018-04-18T05:18:50.834Z,17.90
2018-04-18T05:21:18.297Z,20.47
2018-04-18T05:23:45.748Z,19.00
2018-04-18T05:26:14.006Z,16.90
2018-04-18T05:28:41.474Z,16.83
2018-04-18T05:31:08.945Z,21.87
2018-04-18T05:33:36.401Z,20.57
2018-04-18T05:36:03.869Z,17.63
2018-04-18T05:38:31.324Z,17.23
2018-04-18T05:40:58.802Z,17.23
2018-04-18T05:43:26.263Z,17.00
2018-04-18T05:45:53.738Z,18.30
2018-04-18T05:48:21.209Z,17.10
2018-04-18T05:50:48.685Z,16.00
2018-04-18T05:53:16.142Z,20.90
2018-04-18T05:55:43.618Z,18.57
2018-04-18T05:58:11.203Z,18.03
2018-04-18T06:00:38.673Z,17.93
2018-04-18T06:03:06.143Z,18.30
2018-04-18T06:05:33.612Z,17.20
2018-04-18T06:08:01.073Z,23.23
2018-04-18T06:10:28.537Z,22.87
2018-04-18T06:12:56.003Z,16.83
2018-04-18T06:15:23.482Z,16.43
2018-04-18T06:17:50.934Z,15.63
2018-04-18T06:20:18.400Z,16.23
2018-04-18T06:22:46.110Z,20.20
2018-04-18T06:25:13.594Z,19.33
2018-04-18T06:27:41.041Z,18.43
2018-04-18T06:30:08.539Z,16.53
2018-04-18T06:32:36.001Z,17.03
2018-04-18T06:35:03.476Z,20.07
2018-04-18T06:37:31.689Z,16.43
2018-04-18T06:39:59.203Z,19.97
2018-04-18T06:42:26.622Z,16.73
2018-04-18T06:44:55.098Z,19.77
2018-04-18T06:47:23.317Z,17.57
2018-04-18T06:49:50.786Z,20.70
2018-04-18T06:52:19.010Z,16.57
2018-04-18T06:54:46.482Z,16.23
2018-04-18T06:57:13.938Z,16.50
2018-04-18T06:59:41.405Z,18.47
2018-04-18T07:02:08.881Z,18.30
2018-04-18T07:04:36.400Z,16.03
2018-04-18T07:07:04.628Z,16.87
2018-04-18T07:09:32.089Z,18.17
2018-04-18T07:11:59.569Z,14.43
2018-04-18T07:14:27.027Z,15.90
2018-04-18T07:16:54.478Z,14.27
2018-04-18T07:19:21.960Z,14.93
2018-04-18T07:21:49.439Z,14.90
2018-04-18T07:24:16.876Z,14.83
2018-04-18T07:26:44.350Z,15.63
2018-04-18T07:29:11.842Z,16.37
2018-04-18T07:31:39.529Z,14.90
2018-04-18T07:34:06.980Z,16.30
2018-04-18T07:36:34.453Z,18.00
2018-04-18T07:39:01.916Z,14.10
2018-04-18T07:41:29.381Z,16.03
2018-04-18T07:43:56.842Z,15.73
2018-04-18T07:46:24.310Z,16.17
2018-04-18T07:48:51.821Z,14.70
2018-04-18T07:51:19.298Z,16.73
2018-04-18T07:53:46.753Z,16.63
2018-04-18T07:56:14.224Z,17.13
2018-04-18T07:58:41.690Z,13.90
2018-04-18T08:01:09.150Z,17.67
2018-04-18T08:03:36.609Z,15.87
2018-04-18T08:06:04.088Z,16.80
2018-04-18T08:08:31.588Z,13.00
2018-04-18T08:10:59.002Z,13.57
2018-04-18T08:13:26.457Z,12.60
2018-04-18T08:15:53.925Z,12.00
2018-04-18T08:18:21.383Z,16.43
2018-04-18T08:20:49.612Z,13.70
2018-04-18T08:23:17.073Z,13.50
2018-04-18T08:25:44.541Z,12.37
2018-04-18T08:28:12.004Z,13.47
2018-04-18T08:30:39.474Z,17.67
2018-04-18T08:33:06.925Z,13.57
2018-04-18T08:35:34.392Z,11.80
2018-04-18T08:38:02.614Z,12.43
2018-04-18T08:40:30.082Z,12.43
2018-04-18T08:42:57.538Z,14.80
2018-04-18T08:45:25.004Z,13.27
2018-04-18T08:47:52.456Z,12.80
2018-04-18T08:50:19.929Z,12.53
2018-04-18T08:52:47.385Z,14.13
2018-04-18T08:55:15.636Z,13.20
2018-04-18T08:57:43.090Z,13.00
2018-04-18T09:00:10.566Z,14.23
2018-04-18T09:02:38.026Z,13.57
2018-04-18T09:05:05.479Z,16.33
2018-04-18T09:07:32.941Z,13.03
2018-04-18T09:10:00.399Z,13.27
2018-04-18T09:12:27.867Z,13.20
2018-04-18T09:14:55.314Z,17.53
2018-04-18T09:17:23.545Z,8.97
2018-04-18T09:19:51.001Z,12.33
2018-04-18T09:22:18.468Z,14.10
2018-04-18T09:24:45.925Z,12.77
2018-04-18T09:27:14.159Z,14.43
2018-04-18T09:29:41.622Z,12.60
2018-04-18T09:32:09.073Z,9.47
2018-04-18T09:34:36.534Z,13.43
2018-04-18T09:37:03.993Z,11.90
2018-04-18T09:39:31.450Z,9.07
2018-04-18T09:41:59.682Z,8.07
2018-04-18T09:44:27.136Z,8.43
2018-04-18T09:46:54.589Z,10.30
2018-04-18T09:49:22.054Z,12.20
2018-04-18T09:51:50.268Z,12.37
2018-04-18T09:54:17.728Z,12.10
2018-04-18T09:56:45.189Z,10.10
2018-04-18T09:59:12.641Z,9.40
2018-04-18T10:01:42.787Z,10.20
2018-04-18T10:04:10.242Z,11.17
2018-04-18T10:06:37.708Z,10.93
2018-04-18T10:09:05.921Z,10.63
2018-04-18T10:11:33.385Z,10.43
2018-04-18T10:14:00.837Z,12.33
2018-04-18T10:16:28.321Z,10.60
2018-04-18T10:18:55.768Z,11.33
2018-04-18T10:21:24.009Z,11.13
2018-04-18T10:23:51.461Z,8.67
2018-04-18T10:26:18.916Z,10.07
2018-04-18T10:28:46.371Z,9.53
2018-04-18T10:31:13.833Z,10.13
2018-04-18T10:33:41.284Z,10.17
2018-04-18T10:36:09.514Z,9.83
2018-04-18T10:38:36.973Z,11.90
2018-04-18T10:41:04.438Z,10.37
2018-04-18T10:43:31.900Z,14.70
2018-04-18T10:46:00.125Z,10.23
2018-04-18T10:48:27.619Z,11.23
2018-04-18T10:50:55.877Z,12.77
2018-04-18T10:53:23.341Z,13.30
2018-04-18T10:55:50.793Z,10.90
2018-04-18T10:58:18.251Z,11.83
2018-04-18T11:00:45.718Z,10.00
2018-04-18T11:03:13.949Z,11.67
2018-04-18T11:05:41.404Z,11.60
2018-04-18T11:08:08.872Z,8.87
2018-04-18T11:10:36.327Z,11.30
2018-04-18T11:13:03.790Z,13.17
2018-04-18T11:15:31.250Z,12.37
2018-04-18T11:17:58.717Z,12.07
2018-04-18T11:20:26.221Z,15.50
2018-04-18T11:22:53.684Z,10.73
2018-04-18T11:25:21.145Z,11.00
2018-04-18T11:27:48.608Z,10.43
2018-04-18T11:30:16.067Z,11.27
2018-04-18T11:32:43.538Z,12.10
2018-04-18T11:35:10.994Z,11.90
2018-04-18T11:37:39.224Z,10.97
2018-04-18T11:40:06.669Z,8.70
2018-04-18T11:42:34.141Z,10.30
2018-04-18T11:45:01.606Z,9.17
2018-04-18T11:47:29.070Z,10.73
2018-04-18T11:49:56.522Z,10.10
2018-04-18T11:52:24.744Z,12.27
2018-04-18T11:54:52.199Z,8.63
2018-04-18T11:57:19.670Z,10.57
2018-04-18T11:59:47.129Z,11.53
2018-04-18T12:02:14.644Z,8.17
2018-04-18T12:04:42.049Z,8.27
2018-04-18T12:07:10.280Z,10.13
2018-04-18T12:09:37.734Z,7.53
2018-04-18T12:12:05.189Z,7.73
2018-04-18T12:14:32.641Z,7.13
2018-04-18T12:17:00.864Z,9.97
2018-04-18T12:19:28.309Z,8.67
2018-04-18T12:21:56.531Z,6.57
2018-04-18T12:24:23.977Z,5.83
2018-04-18T12:26:51.438Z,6.40
2018-04-18T12:29:18.895Z,6.70
2018-04-18T12:31:47.131Z,6.50
2018-04-18T12:34:14.584Z,6.13
2018-04-18T12:36:42.049Z,5.33
2018-04-18T12:39:09.498Z,6.43
2018-04-18T12:41:36.953Z,6.03
2018-04-18T12:44:05.177Z,4.53
2018-04-18T12:46:32.637Z,9.03
2018-04-18T12:49:00.334Z,4.67
2018-04-18T12:51:27.776Z,4.50
2018-04-18T12:53:55.224Z,9.17
2018-04-18T12:56:23.448Z,7.77
2018-04-18T12:58:50.888Z,6.50
2018-04-18T13:01:18.341Z,6.40
2018-04-18T13:03:46.573Z,5.60
2018-04-18T13:06:14.030Z,5.43
2018-04-18T13:08:41.498Z,5.10
2018-04-18T13:11:08.940Z,5.03
2018-04-18T13:13:37.182Z,5.07
2018-04-18T13:16:04.627Z,4.70
2018-04-18T13:18:32.093Z,4.93
2018-04-18T13:20:59.577Z,3.70
2018-04-18T13:23:27.032Z,3.53
2018-04-18T13:25:54.480Z,5.73
2018-04-18T13:28:22.705Z,5.00
2018-04-18T13:30:50.158Z,8.07
2018-04-18T13:33:17.613Z,2.87
2018-04-18T13:35:45.068Z,3.13
2018-04-18T13:38:13.306Z,4.03
2018-04-18T13:40:40.762Z,5.07
2018-04-18T13:43:08.217Z,3.53
2018-04-18T13:45:35.674Z,3.10
2018-04-18T13:48:03.182Z,5.00
2018-04-18T13:50:30.602Z,3.13
2018-04-18T13:52:58.828Z,2.43
2018-04-18T13:55:26.282Z,3.33
2018-04-18T13:57:53.745Z,2.80
2018-04-18T14:00:21.202Z,2.43
2018-04-18T14:02:49.430Z,3.73
2018-04-18T14:05:16.877Z,3.40
2018-04-18T14:07:44.333Z,3.30
2018-04-18T14:10:11.792Z,3.83
2018-04-18T14:12:40.017Z,5.50
2018-04-18T14:15:07.469Z,4.73
2018-04-18T14:17:34.929Z,3.40
2018-04-18T14:20:02.398Z,4.40
2018-04-18T14:22:29.848Z,3.70
2018-04-18T14:24:58.078Z,2.87
2018-04-18T14:27:25.544Z,3.30
2018-04-18T14:29:53.006Z,3.27
2018-04-18T14:32:20.462Z,4.77
2018-04-18T14:34:47.908Z,3.30
2018-04-18T14:37:16.133Z,3.27
2018-04-18T14:39:43.583Z,5.17
2018-04-18T14:42:11.052Z,3.03
2018-04-18T14:44:38.497Z,2.67
2018-04-18T14:47:06.720Z,3.43
2018-04-18T14:49:34.175Z,4.77
2018-04-18T14:52:01.638Z,3.30
2018-04-18T14:54:29.081Z,3.23
2018-04-18T14:56:56.558Z,3.80
2018-04-18T14:59:24.788Z,2.90
2018-04-18T15:01:52.240Z,5.80
2018-04-18T15:04:19.699Z,3.77
2018-04-18T15:06:47.162Z,4.57
2018-04-18T15:09:15.372Z,3.20
2018-04-18T15:11:42.822Z,3.53
2018-04-18T15:14:10.291Z,3.47
2018-04-18T15:16:38.498Z,4.13
2018-04-18T15:19:05.966Z,3.80
2018-04-18T15:21:33.421Z,3.97
2018-04-18T15:24:00.922Z,3.73
2018-04-18T15:26:28.368Z,2.87
2018-04-18T15:28:55.829Z,5.40
2018-04-18T15:31:23.272Z,2.60
2018-04-18T15:33:51.514Z,4.97
2018-04-18T15:36:18.953Z,4.87
2018-04-18T15:38:46.423Z,2.97
2018-04-18T15:41:13.860Z,2.33
2018-04-18T15:43:41.320Z,5.73
2018-04-18T15:46:08.773Z,4.30
2018-04-18T15:48:36.220Z,3.60
2018-04-18T15:51:03.669Z,3.97
2018-04-18T15:53:31.138Z,3.50
2018-04-18T15:55:58.590Z,3.80
2018-04-18T15:58:26.817Z,2.50
2018-04-18T16:00:54.265Z,4.47
2018-04-18T16:03:21.737Z,4.13
2018-04-18T16:05:49.180Z,4.27
2018-04-18T16:08:17.469Z,3.47
2018-04-18T16:10:45.689Z,4.03
2018-04-18T16:13:13.163Z,2.87
2018-04-18T16:15:40.664Z,5.33
2018-04-18T16:18:08.125Z,3.50
2018-04-18T16:20:35.574Z,5.93
2018-04-18T16:23:03.034Z,3.17
2018-04-18T16:25:30.487Z,3.80
2018-04-18T16:27:57.944Z,3.40
2018-04-18T16:30:37.243Z,4.33
2018-04-18T16:33:04.700Z,3.23
2018-04-18T16:35:32.159Z,6.90
2018-04-18T16:37:59.630Z,3.93
2018-04-18T16:40:27.070Z,4.53
2018-04-18T16:42:55.381Z,5.17
2018-04-18T16:45:22.838Z,3.80
2018-04-18T16:47:50.294Z,4.27
2018-04-18T16:50:18.513Z,4.80
2018-04-18T16:52:45.966Z,4.73
2018-04-18T16:55:13.430Z,4.87
2018-04-18T16:57:40.881Z,3.60
2018-04-18T17:00:09.109Z,3.17
2018-04-18T17:02:36.576Z,3.60
2018-04-18T17:05:04.021Z,5.07
2018-04-18T17:07:31.464Z,6.13
2018-04-18T17:09:59.685Z,6.13
2018-04-18T17:12:27.132Z,4.03
2018-04-18T17:14:55.356Z,7.23
2018-04-18T17:17:22.804Z,4.03
2018-04-18T17:19:50.253Z,3.33
2018-04-18T17:22:18.594Z,3.90
2018-04-18T17:24:46.066Z,3.87
2018-04-18T17:27:13.504Z,3.30
2018-04-18T17:29:40.964Z,6.43
2018-04-18T17:32:08.416Z,4.60
2018-04-18T17:34:36.636Z,5.87
2018-04-18T17:37:04.090Z,4.33
2018-04-18T17:39:31.551Z,3.10
2018-04-18T17:41:59.014Z,3.67
2018-04-18T17:44:27.217Z,5.27
2018-04-18T17:46:54.684Z,3.03
2018-04-18T17:49:22.133Z,4.27
2018-04-18T17:51:50.357Z,4.63
2018-04-18T17:54:17.827Z,3.63
2018-04-18T17:56:45.318Z,3.90
2018-04-18T17:59:12.777Z,5.00
2018-04-18T18:01:40.238Z,2.87
2018-04-18T18:04:07.690Z,3.03
2018-04-18T18:06:35.153Z,3.80
2018-04-18T18:09:02.596Z,4.27
2018-04-18T18:11:30.840Z,4.70
2018-04-18T18:13:58.277Z,3.73
2018-04-18T18:16:25.745Z,5.00
2018-04-18T18:18:53.953Z,4.13
2018-04-18T18:21:21.417Z,3.73
2018-04-18T18:23:48.870Z,5.17
2018-04-18T18:26:16.325Z,4.47
2018-04-18T18:28:44.554Z,5.73
2018-04-18T18:31:12.006Z,3.17
2018-04-18T18:33:39.460Z,3.57
2018-04-18T18:36:06.908Z,4.73
2018-04-18T18:38:35.141Z,3.80
2018-04-18T18:41:02.702Z,5.47
2018-04-18T18:43:30.165Z,3.57
2018-04-18T18:45:57.662Z,4.23
2018-04-18T18:48:25.156Z,3.40
2018-04-18T18:50:52.612Z,6.67
2018-04-18T18:53:20.078Z,9.13
2018-04-18T18:55:47.530Z,8.07
2018-04-18T18:58:14.998Z,5.20
2018-04-18T19:00:42.458Z,5.63
2018-04-18T19:03:09.918Z,4.70
2018-04-18T19:05:37.376Z,4.97
2018-04-18T19:08:04.839Z,5.73
2018-04-18T19:10:33.051Z,8.10
2018-04-18T19:13:00.510Z,9.17
2018-04-18T19:15:27.964Z,9.97
2018-04-18T19:17:56.190Z,10.83
2018-04-18T19:20:23.688Z,7.93
2018-04-18T19:22:51.136Z,7.97
2018-04-18T19:25:18.602Z,7.93
2018-04-18T19:27:46.058Z,7.83
2018-04-18T19:30:13.508Z,5.70
2018-04-18T19:32:40.956Z,5.10
2018-04-18T19:35:09.186Z,7.63
2018-04-18T19:37:36.636Z,6.53
2018-04-18T19:40:04.097Z,6.40
2018-04-18T19:42:31.545Z,4.73
2018-04-18T19:44:59.773Z,4.10
2018-04-18T19:47:27.233Z,4.10
2018-04-18T19:49:54.702Z,4.83
2018-04-18T19:52:22.157Z,5.47
2018-04-18T19:54:49.617Z,5.23
2018-04-18T19:57:17.067Z,4.63
2018-04-18T19:59:45.288Z,5.00
2018-04-18T20:02:12.735Z,5.00
2018-04-18T20:04:40.975Z,6.40
2018-04-18T20:07:08.426Z,4.60
2018-04-18T20:09:35.885Z,5.00
2018-04-18T20:12:03.343Z,4.77
2018-04-18T20:14:30.796Z,5.17
2018-04-18T20:16:59.012Z,8.33
2018-04-18T20:19:26.473Z,5.50
2018-04-18T20:21:53.933Z,4.90
2018-04-18T20:24:21.394Z,6.43
2018-04-18T20:26:49.618Z,6.13
2018-04-18T20:29:17.085Z,4.83
2018-04-18T20:31:44.530Z,4.97
2018-04-18T20:34:11.994Z,5.07
2018-04-18T20:36:56.274Z,5.10
2018-04-18T20:39:23.733Z,5.47
2018-04-18T20:41:54.106Z,6.70
2018-04-18T20:44:21.574Z,4.93
2018-04-18T20:46:49.029Z,4.60
2018-04-18T20:49:16.489Z,5.10
2018-04-18T20:51:43.970Z,4.40
2018-04-18T20:54:11.428Z,5.77
2018-04-18T20:56:38.872Z,7.23
2018-04-18T20:59:06.351Z,4.77
2018-04-18T21:01:33.825Z,5.57
2018-04-18T21:04:01.316Z,5.53
2018-04-18T21:06:28.781Z,5.25
2018-04-18T21:08:56.250Z,6.20
2018-04-18T21:11:23.701Z,5.33
2018-04-18T21:13:51.152Z,4.87
2018-04-18T21:16:19.381Z,4.40
2018-04-18T21:18:46.829Z,4.70
2018-04-18T21:21:14.276Z,5.47
2018-04-18T21:23:41.737Z,5.33
2018-04-18T21:26:09.953Z,5.17
2018-04-18T21:28:37.422Z,5.93
2018-04-18T21:31:04.880Z,10.03
2018-04-18T21:33:32.346Z,9.00
2018-04-18T21:35:59.796Z,8.90
2018-04-18T21:38:28.084Z,8.43
2018-04-18T21:40:55.499Z,7.57
2018-04-18T21:43:22.974Z,7.33
2018-04-18T21:45:50.465Z,5.80
2018-04-18T21:48:17.924Z,6.10
2018-04-18T21:50:45.393Z,6.47
2018-04-18T21:53:12.840Z,6.27
2018-04-18T21:55:40.289Z,5.40
2018-04-18T21:58:07.732Z,7.00
2018-04-18T22:00:35.966Z,5.30
2018-04-18T22:03:03.420Z,5.37
2018-04-18T22:05:30.875Z,5.13
2018-04-18T22:07:58.316Z,4.60
2018-04-18T22:10:25.787Z,4.50
2018-04-18T22:12:53.228Z,4.77
2018-04-18T22:15:20.689Z,5.00
2018-04-18T22:17:48.138Z,5.03
2018-04-18T22:20:15.605Z,5.80
2018-04-18T22:22:43.061Z,4.83
2018-04-18T22:25:10.527Z,5.43
2018-04-18T22:27:37.981Z,6.53
2018-04-18T22:30:06.210Z,6.43
2018-04-18T22:32:33.661Z,4.83
2018-04-18T22:35:01.148Z,4.77
2018-04-18T22:37:28.580Z,4.73
2018-04-18T22:39:56.805Z,5.40
2018-04-18T22:42:24.257Z,4.77
2018-04-18T22:44:51.718Z,5.23
2018-04-18T22:47:19.169Z,4.60
2018-04-18T22:49:47.394Z,5.00
2018-04-18T22:52:14.847Z,5.17
2018-04-18T22:54:42.304Z,6.17
2018-04-18T22:57:09.753Z,5.77
2018-04-18T22:59:37.981Z,5.40
2018-04-18T23:02:05.423Z,7.00
2018-04-18T23:04:33.649Z,5.83
2018-04-18T23:07:01.097Z,5.37
2018-04-18T23:09:28.569Z,7.73
2018-04-18T23:11:56.010Z,5.77
2018-04-18T23:14:24.246Z,6.07
2018-04-18T23:16:51.676Z,5.73
2018-04-18T23:19:19.147Z,7.50
2018-04-18T23:21:46.593Z,5.67
2018-04-18T23:24:14.825Z,6.87
2018-04-18T23:26:42.278Z,8.20
2018-04-18T23:29:09.733Z,6.97
2018-04-18T23:31:37.944Z,7.67
2018-04-18T23:34:05.404Z,6.20
2018-04-18T23:36:32.848Z,7.40
2018-04-18T23:39:01.094Z,6.50
2018-04-18T23:41:28.542Z,7.80
2018-04-18T23:43:56.005Z,7.03
2018-04-18T23:46:23.485Z,6.53
2018-04-18T23:48:50.954Z,6.93
2018-04-18T23:51:18.404Z,6.87
2018-04-18T23:53:45.900Z,9.57
2018-04-18T23:56:13.366Z,6.87
2018-04-18T23:58:40.877Z,7.73
